createdAt,value
2023-01-30T00:01:29.404Z,100.00
2023-01-30T00:03:31.173Z,100.00
2023-01-30T00:03:55.917Z,100.00
2023-01-30T00:06:23.954Z,100.00
2023-01-30T00:08:31.117Z,100.00
2023-01-30T00:08:50.710Z,100.00
2023-01-30T00:11:19.582Z,100.00
2023-01-30T00:13:31.177Z,100.00
2023-01-30T00:13:47.541Z,100.00
2023-01-30T00:16:14.188Z,100.00
2023-01-30T00:18:31.150Z,100.00
2023-01-30T00:18:41.533Z,100.00
2023-01-30T00:21:11.320Z,100.00
2023-01-30T00:23:31.136Z,100.00
2023-01-30T00:23:38.625Z,100.00
2023-01-30T00:26:06.386Z,100.00
2023-01-30T00:28:31.153Z,100.00
2023-01-30T00:28:33.595Z,100.00
2023-01-30T00:30:59.984Z,100.00
2023-01-30T00:33:27.500Z,100.00
2023-01-30T00:33:31.136Z,100.00
2023-01-30T00:35:55.803Z,100.00
2023-01-30T00:38:23.737Z,100.00
2023-01-30T00:38:31.119Z,100.00
2023-01-30T00:40:50.295Z,100.00
2023-01-30T00:43:37.949Z,100.00
2023-01-30T00:43:38.092Z,100.00
2023-01-30T00:46:32.050Z,100.00
2023-01-30T00:48:31.109Z,100.00
2023-01-30T00:48:58.421Z,100.00
2023-01-30T00:51:24.871Z,100.00
2023-01-30T00:53:31.129Z,100.00
2023-01-30T00:53:51.284Z,100.00
2023-01-30T00:56:17.581Z,100.00
2023-01-30T00:58:31.247Z,100.00
2023-01-30T00:58:44.065Z,100.00
2023-01-30T01:01:10.454Z,100.00
2023-01-30T01:03:31.179Z,100.00
2023-01-30T01:03:36.810Z,100.00
2023-01-30T01:06:03.362Z,100.00
2023-01-30T01:08:29.713Z,100.00
2023-01-30T01:08:31.162Z,100.00
2023-01-30T01:10:56.268Z,100.00
2023-01-30T01:13:22.588Z,100.00
2023-01-30T01:13:31.173Z,100.00
2023-01-30T01:15:50.128Z,100.00
2023-01-30T01:18:16.632Z,100.00
2023-01-30T01:18:31.134Z,100.00
2023-01-30T01:20:42.961Z,100.00
2023-01-30T01:23:10.865Z,100.00
2023-01-30T01:23:31.133Z,100.00
2023-01-30T01:25:37.461Z,100.00
2023-01-30T01:28:04.212Z,100.00
2023-01-30T01:28:31.165Z,100.00
2023-01-30T01:30:30.636Z,100.00
2023-01-30T01:32:57.574Z,100.00
2023-01-30T01:33:31.131Z,100.00
2023-01-30T01:35:24.024Z,100.00
2023-01-30T01:37:54.376Z,100.00
2023-01-30T01:38:31.149Z,100.00
2023-01-30T01:40:40.748Z,100.00
2023-01-30T01:43:17.034Z,100.00
2023-01-30T01:43:31.136Z,100.00
2023-01-30T01:45:44.458Z,100.00
2023-01-30T01:48:27.171Z,100.00
2023-01-30T01:48:31.164Z,100.00
2023-01-30T01:51:02.222Z,100.00
2023-01-30T01:53:33.740Z,100.00
2023-01-30T01:53:33.957Z,100.00
2023-01-30T01:56:02.498Z,100.00
2023-01-30T01:58:42.562Z,100.00
2023-01-30T01:58:42.722Z,100.00
2023-01-30T02:01:09.084Z,100.00
2023-01-30T02:03:31.168Z,100.00
2023-01-30T02:03:41.125Z,100.00
2023-01-30T02:06:08.847Z,100.00
2023-01-30T02:08:31.168Z,100.00
2023-01-30T02:08:39.972Z,100.00
2023-01-30T02:11:29.704Z,100.00
2023-01-30T02:13:31.211Z,100.00
2023-01-30T02:13:57.671Z,100.00
2023-01-30T02:16:24.065Z,100.00
2023-01-30T02:18:31.154Z,100.00
2023-01-30T02:18:50.722Z,100.00
2023-01-30T02:21:35.879Z,100.00
2023-01-30T02:23:31.155Z,100.00
2023-01-30T02:24:27.141Z,100.00
2023-01-30T02:27:18.414Z,100.00
2023-01-30T02:28:31.170Z,100.00
2023-01-30T02:30:02.900Z,100.00
2023-01-30T02:32:38.413Z,100.00
2023-01-30T02:33:31.161Z,100.00
2023-01-30T02:35:28.968Z,100.00
2023-01-30T02:38:01.421Z,100.00
2023-01-30T02:38:31.172Z,100.00
2023-01-30T02:40:40.928Z,100.00
2023-01-30T02:43:57.587Z,100.00
2023-01-30T02:43:57.729Z,100.00
2023-01-30T02:46:31.461Z,100.00
2023-01-30T02:48:31.187Z,100.00
2023-01-30T02:49:11.653Z,100.00
2023-01-30T02:51:39.559Z,100.00
2023-01-30T02:53:31.153Z,100.00
2023-01-30T02:54:07.838Z,100.00
2023-01-30T02:56:56.965Z,100.00
2023-01-30T02:58:31.225Z,100.00
2023-01-30T02:59:27.150Z,100.00
2023-01-30T03:02:15.087Z,100.00
2023-01-30T03:03:31.264Z,100.00
2023-01-30T03:05:03.593Z,100.00
2023-01-30T03:07:44.122Z,100.00
2023-01-30T03:08:31.192Z,100.00
2023-01-30T03:10:13.208Z,100.00
2023-01-30T03:13:11.401Z,100.00
2023-01-30T03:13:31.185Z,100.00
2023-01-30T03:15:45.527Z,100.00
2023-01-30T03:18:12.017Z,100.00
2023-01-30T03:18:31.154Z,100.00
2023-01-30T03:20:40.416Z,100.00
2023-01-30T03:23:07.348Z,100.00
2023-01-30T03:23:31.163Z,100.00
2023-01-30T03:25:36.153Z,100.00
2023-01-30T03:28:04.861Z,100.00
2023-01-30T03:28:31.162Z,100.00
2023-01-30T03:30:31.418Z,100.00
2023-01-30T03:32:57.766Z,100.00
2023-01-30T03:33:31.191Z,100.00
2023-01-30T03:35:24.342Z,100.00
2023-01-30T03:37:51.128Z,100.00
2023-01-30T03:38:31.171Z,100.00
2023-01-30T03:40:18.238Z,100.00
2023-01-30T03:42:44.730Z,100.00
2023-01-30T03:43:31.188Z,100.00
2023-01-30T03:45:11.791Z,100.00
2023-01-30T03:47:38.334Z,100.00
2023-01-30T03:48:31.194Z,100.00
2023-01-30T03:50:05.163Z,100.00
2023-01-30T03:52:31.520Z,100.00
2023-01-30T03:53:31.192Z,100.00
2023-01-30T03:54:57.904Z,100.00
2023-01-30T03:57:24.269Z,100.00
2023-01-30T03:58:31.167Z,100.00
2023-01-30T03:59:52.787Z,100.00
2023-01-30T04:02:23.372Z,100.00
2023-01-30T04:03:31.207Z,100.00
2023-01-30T04:04:50.008Z,100.00
2023-01-30T04:07:16.699Z,100.00
2023-01-30T04:08:31.164Z,100.00
2023-01-30T04:09:45.217Z,100.00
2023-01-30T04:12:11.626Z,100.00
2023-01-30T04:13:31.194Z,100.00
2023-01-30T04:14:37.936Z,100.00
2023-01-30T04:17:04.325Z,100.00
2023-01-30T04:18:31.161Z,100.00
2023-01-30T04:19:30.693Z,100.00
2023-01-30T04:21:57.169Z,100.00
2023-01-30T04:23:31.177Z,100.00
2023-01-30T04:24:23.623Z,100.00
2023-01-30T04:26:52.392Z,100.00
2023-01-30T04:28:31.208Z,100.00
2023-01-30T04:29:18.889Z,100.00
2023-01-30T04:31:45.356Z,100.00
2023-01-30T04:33:31.189Z,100.00
2023-01-30T04:34:11.740Z,100.00
2023-01-30T04:36:41.259Z,100.00
2023-01-30T04:38:31.175Z,100.00
2023-01-30T04:39:07.594Z,100.00
2023-01-30T04:41:33.936Z,100.00
2023-01-30T04:43:31.178Z,100.00
2023-01-30T04:44:00.427Z,100.00
2023-01-30T04:46:26.929Z,100.00
2023-01-30T04:48:31.182Z,100.00
2023-01-30T04:48:53.239Z,100.00
2023-01-30T04:51:19.625Z,100.00
2023-01-30T04:53:31.191Z,100.00
2023-01-30T04:53:45.976Z,100.00
2023-01-30T04:56:12.351Z,100.00
2023-01-30T04:58:31.220Z,100.00
2023-01-30T04:58:38.807Z,100.00
2023-01-30T05:01:14.945Z,100.00
2023-01-30T05:03:31.165Z,100.00
2023-01-30T05:03:41.318Z,100.00
2023-01-30T05:06:07.864Z,100.00
2023-01-30T05:08:31.206Z,100.00
2023-01-30T05:08:34.303Z,100.00
2023-01-30T05:11:00.665Z,100.00
2023-01-30T05:13:27.028Z,100.00
2023-01-30T05:13:31.182Z,100.00
2023-01-30T05:15:53.476Z,100.00
2023-01-30T05:18:19.873Z,100.00
2023-01-30T05:18:31.199Z,100.00
2023-01-30T05:20:46.248Z,100.00
2023-01-30T05:23:12.553Z,100.00
2023-01-30T05:23:31.191Z,100.00
2023-01-30T05:25:38.973Z,100.00
2023-01-30T05:28:05.374Z,100.00
2023-01-30T05:28:31.196Z,100.00
2023-01-30T05:30:31.759Z,100.00
2023-01-30T05:32:58.843Z,100.00
2023-01-30T05:33:31.225Z,100.00
2023-01-30T05:35:25.273Z,100.00
2023-01-30T05:37:52.385Z,100.00
2023-01-30T05:38:31.224Z,100.00
2023-01-30T05:40:18.824Z,100.00
2023-01-30T05:42:45.202Z,100.00
2023-01-30T05:43:31.196Z,100.00
2023-01-30T05:45:11.695Z,100.00
2023-01-30T05:47:38.079Z,100.00
2023-01-30T05:48:31.209Z,100.00
2023-01-30T05:50:04.834Z,100.00
2023-01-30T05:52:31.372Z,100.00
2023-01-30T05:53:31.202Z,100.00
2023-01-30T05:54:57.690Z,100.00
2023-01-30T05:57:26.521Z,100.00
2023-01-30T05:58:32.199Z,100.00
2023-01-30T05:59:52.863Z,100.00
2023-01-30T06:02:19.407Z,100.00
2023-01-30T06:03:31.232Z,100.00
2023-01-30T06:04:45.823Z,100.00
2023-01-30T06:07:12.194Z,100.00
2023-01-30T06:08:31.213Z,100.00
2023-01-30T06:09:38.493Z,100.00
2023-01-30T06:12:06.308Z,100.00
2023-01-30T06:13:31.217Z,100.00
2023-01-30T06:14:32.702Z,100.00
2023-01-30T06:16:59.124Z,100.00
2023-01-30T06:18:31.214Z,100.00
2023-01-30T06:19:25.533Z,100.00
2023-01-30T06:21:51.985Z,100.00
2023-01-30T06:23:31.206Z,100.00
2023-01-30T06:24:18.410Z,100.00
2023-01-30T06:26:44.860Z,100.00
2023-01-30T06:28:31.196Z,100.00
2023-01-30T06:29:11.401Z,100.00
2023-01-30T06:31:37.879Z,100.00
2023-01-30T06:33:31.201Z,100.00
2023-01-30T06:34:04.256Z,100.00
2023-01-30T06:36:30.725Z,100.00
2023-01-30T06:38:31.229Z,100.00
2023-01-30T06:38:57.127Z,100.00
2023-01-30T06:41:23.526Z,100.00
2023-01-30T06:43:31.190Z,100.00
2023-01-30T06:43:49.972Z,100.00
2023-01-30T06:46:16.607Z,100.00
2023-01-30T06:48:31.226Z,100.00
2023-01-30T06:48:43.022Z,100.00
2023-01-30T06:51:09.477Z,100.00
2023-01-30T06:53:31.199Z,100.00
2023-01-30T06:53:36.732Z,100.00
2023-01-30T06:56:03.342Z,100.00
2023-01-30T06:58:29.885Z,100.00
2023-01-30T06:58:31.288Z,100.00
2023-01-30T07:00:56.678Z,100.00
2023-01-30T07:03:23.524Z,100.00
2023-01-30T07:03:31.192Z,100.00
2023-01-30T07:06:11.801Z,100.00
2023-01-30T07:08:31.257Z,100.00
2023-01-30T07:08:38.235Z,100.00
2023-01-30T07:11:05.426Z,100.00
2023-01-30T07:13:31.785Z,100.00
2023-01-30T07:13:31.916Z,100.00
2023-01-30T07:15:58.460Z,100.00
2023-01-30T07:18:24.845Z,100.00
2023-01-30T07:18:31.261Z,100.00
2023-01-30T07:20:51.322Z,100.00
2023-01-30T07:23:20.078Z,100.00
2023-01-30T07:23:31.228Z,100.00
2023-01-30T07:25:46.572Z,100.00
2023-01-30T07:28:13.063Z,100.00
2023-01-30T07:28:31.236Z,100.00
2023-01-30T07:30:39.574Z,100.00
2023-01-30T07:33:06.726Z,100.00
2023-01-30T07:33:31.229Z,100.00
2023-01-30T07:35:35.704Z,100.00
2023-01-30T07:38:02.180Z,100.00
2023-01-30T07:38:31.240Z,100.00
2023-01-30T07:40:28.659Z,100.00
2023-01-30T07:43:12.223Z,100.00
2023-01-30T07:43:31.220Z,100.00
2023-01-30T07:45:47.955Z,100.00
2023-01-30T07:48:16.851Z,100.00
2023-01-30T07:48:31.216Z,100.00
2023-01-30T07:50:44.044Z,100.00
2023-01-30T07:53:13.330Z,100.00
2023-01-30T07:53:31.223Z,100.00
2023-01-30T07:55:40.061Z,100.00
2023-01-30T07:58:06.510Z,100.00
2023-01-30T07:58:31.258Z,100.00
2023-01-30T08:00:33.144Z,100.00
2023-01-30T08:02:59.739Z,100.00
2023-01-30T08:03:31.232Z,100.00
2023-01-30T08:05:26.641Z,100.00
2023-01-30T08:07:56.132Z,100.00
2023-01-30T08:08:31.240Z,100.00
2023-01-30T08:10:22.632Z,100.00
2023-01-30T08:12:52.523Z,100.00
2023-01-30T08:13:31.204Z,100.00
2023-01-30T08:15:20.667Z,100.00
2023-01-30T08:17:56.132Z,100.00
2023-01-30T08:18:31.259Z,100.00
2023-01-30T08:20:22.910Z,100.00
2023-01-30T08:22:49.402Z,100.00
2023-01-30T08:23:31.246Z,100.00
2023-01-30T08:25:15.865Z,100.00
2023-01-30T08:27:42.308Z,100.00
2023-01-30T08:28:31.208Z,100.00
2023-01-30T08:30:10.487Z,100.00
2023-01-30T08:32:36.941Z,100.00
2023-01-30T08:33:31.225Z,100.00
2023-01-30T08:35:03.722Z,100.00
2023-01-30T08:37:30.142Z,100.00
2023-01-30T08:38:31.220Z,100.00
2023-01-30T08:39:56.642Z,100.00
2023-01-30T08:42:23.017Z,100.00
2023-01-30T08:43:31.230Z,100.00
2023-01-30T08:44:49.953Z,100.00
2023-01-30T08:47:16.606Z,100.00
2023-01-30T08:48:40.000Z,100.00
2023-01-30T08:49:43.036Z,100.00
2023-01-30T08:52:10.175Z,100.00
2023-01-30T08:53:31.228Z,100.00
2023-01-30T08:54:36.686Z,100.00
2023-01-30T08:57:03.036Z,100.00
2023-01-30T08:58:31.251Z,100.00
2023-01-30T08:59:29.409Z,100.00
2023-01-30T09:01:55.797Z,100.00
2023-01-30T09:03:31.243Z,100.00
2023-01-30T09:04:24.971Z,100.00
2023-01-30T09:06:51.315Z,100.00
2023-01-30T09:08:31.213Z,100.00
2023-01-30T09:09:18.133Z,100.00
2023-01-30T09:11:44.600Z,100.00
2023-01-30T09:13:31.225Z,100.00
2023-01-30T09:14:10.965Z,100.00
2023-01-30T09:16:37.371Z,100.00
2023-01-30T09:18:31.215Z,100.00
2023-01-30T09:19:03.788Z,100.00
2023-01-30T09:21:31.998Z,100.00
2023-01-30T09:23:31.212Z,100.00
2023-01-30T09:23:58.400Z,100.00
2023-01-30T09:26:24.860Z,100.00
2023-01-30T09:28:31.257Z,100.00
2023-01-30T09:28:51.325Z,100.00
2023-01-30T09:31:17.894Z,100.00
2023-01-30T09:33:31.276Z,100.00
2023-01-30T09:33:44.387Z,100.00
2023-01-30T09:36:10.698Z,100.00
2023-01-30T09:38:31.257Z,100.00
2023-01-30T09:38:37.131Z,100.00
2023-01-30T09:41:30.248Z,100.00
2023-01-30T09:43:31.268Z,100.00
2023-01-30T09:43:56.616Z,100.00
2023-01-30T09:46:35.243Z,100.00
2023-01-30T09:48:31.245Z,100.00
2023-01-30T09:49:16.897Z,100.00
2023-01-30T09:52:01.945Z,100.00
2023-01-30T09:53:31.237Z,100.00
2023-01-30T09:54:36.362Z,100.00
2023-01-30T09:57:20.828Z,100.00
2023-01-30T09:58:31.247Z,100.00
2023-01-30T10:00:11.175Z,100.00
2023-01-30T10:03:08.909Z,100.00
2023-01-30T10:03:31.285Z,100.00
2023-01-30T10:05:43.572Z,100.00
2023-01-30T10:08:47.905Z,100.00
2023-01-30T10:08:48.074Z,100.00
2023-01-30T10:11:29.968Z,100.00
2023-01-30T10:13:31.221Z,100.00
2023-01-30T10:13:59.187Z,100.00
2023-01-30T10:16:41.080Z,100.00
2023-01-30T10:18:31.254Z,100.00
2023-01-30T10:19:35.707Z,100.00
2023-01-30T10:22:11.668Z,100.00
2023-01-30T10:23:31.307Z,100.00
2023-01-30T10:24:56.401Z,100.00
2023-01-30T10:27:25.419Z,100.00
2023-01-30T10:28:31.263Z,100.00
2023-01-30T10:29:57.034Z,100.00
2023-01-30T10:32:46.510Z,100.00
2023-01-30T10:33:31.296Z,100.00
2023-01-30T10:35:20.569Z,100.00
2023-01-30T10:37:59.802Z,100.00
2023-01-30T10:38:31.331Z,100.00
2023-01-30T10:40:44.843Z,100.00
2023-01-30T10:43:32.876Z,99.24
2023-01-30T10:43:33.039Z,99.24
2023-01-30T10:46:28.562Z,99.26
2023-01-30T10:48:42.582Z,99.26
2023-01-30T10:49:01.374Z,97.99
2023-01-30T10:51:39.494Z,97.51
2023-01-30T10:53:31.323Z,97.51
2023-01-30T10:54:42.362Z,97.64
2023-01-30T10:57:41.021Z,97.07
2023-01-30T10:58:31.360Z,97.07
2023-01-30T11:00:30.238Z,96.54
2023-01-30T11:03:21.193Z,95.89
2023-01-30T11:03:31.357Z,95.89
2023-01-30T11:05:53.861Z,94.95
2023-01-30T11:08:24.920Z,95.11
2023-01-30T11:08:31.378Z,23
2023-01-30T11:10:52.476Z,95.35
2023-01-30T11:13:21.977Z,95.34
2023-01-30T11:13:31.378Z,95.34
2023-01-30T11:15:52.793Z,95.36
2023-01-30T11:19:18.204Z,95.27
2023-01-30T11:21:13.586Z,93.80
2023-01-30T11:23:31.433Z,93.80
2023-01-30T11:23:43.630Z,94.59
2023-01-30T11:26:32.059Z,94.05
2023-01-30T11:28:31.469Z,94.05
2023-01-30T11:29:23.974Z,94.76
2023-01-30T11:31:51.097Z,94.37
2023-01-30T11:33:31.539Z,94.37
2023-01-30T11:34:21.069Z,94.90
2023-01-30T11:36:48.573Z,93.69
2023-01-30T11:38:31.557Z,93.69
2023-01-30T11:39:18.585Z,93.32
2023-01-30T11:41:53.936Z,93.47
2023-01-30T11:43:31.559Z,93.47
2023-01-30T11:44:26.844Z,92.36
2023-01-30T11:46:53.818Z,91.14
2023-01-30T11:48:33.605Z,91.14
2023-01-30T11:49:46.438Z,90.50
2023-01-30T11:52:09.520Z,89.54
2023-01-30T11:53:31.605Z,89.54
2023-01-30T11:54:40.796Z,90.42
2023-01-30T11:57:13.642Z,89.64
2023-01-30T11:58:31.739Z,89.64
2023-01-30T11:59:45.818Z,90.96
2023-01-30T12:02:24.687Z,90.50
2023-01-30T12:03:31.719Z,90.50
2023-01-30T12:04:56.522Z,90.49
2023-01-30T12:07:31.869Z,89.52
2023-01-30T12:08:41.851Z,89.52
2023-01-30T12:09:58.812Z,89.47
2023-01-30T12:12:28.254Z,91.08
2023-01-30T12:13:31.737Z,91.08
2023-01-30T12:15:17.129Z,91.47
2023-01-30T12:17:58.791Z,91.43
2023-01-30T12:18:31.778Z,91.43
2023-01-30T12:20:39.404Z,90.29
2023-01-30T12:23:15.546Z,91.57
2023-01-30T12:23:31.721Z,91.57
2023-01-30T12:25:52.219Z,90.16
2023-01-30T12:28:33.115Z,89.64
2023-01-30T12:28:33.332Z,89.64
2023-01-30T12:31:14.899Z,87.75
2023-01-30T12:33:31.766Z,87.75
2023-01-30T12:33:41.293Z,86.37
2023-01-30T12:36:38.320Z,86.35
2023-01-30T12:38:31.750Z,86.35
2023-01-30T12:39:13.892Z,85.29
2023-01-30T12:42:01.359Z,84.19
2023-01-30T12:43:31.731Z,84.19
2023-01-30T12:44:35.387Z,83.00
2023-01-30T12:47:07.490Z,82.03
2023-01-30T12:48:33.779Z,82.03
2023-01-30T12:49:39.823Z,82.09
2023-01-30T12:52:28.995Z,79.92
2023-01-30T12:53:31.708Z,79.92
2023-01-30T12:55:20.427Z,79.20
2023-01-30T12:58:16.202Z,79.19
2023-01-30T12:58:31.705Z,79.19
2023-01-30T13:01:16.193Z,76.97
2023-01-30T13:03:31.726Z,76.97
2023-01-30T13:03:45.735Z,77.18
2023-01-30T13:06:39.621Z,76.82
2023-01-30T13:08:31.705Z,76.82
2023-01-30T13:09:27.437Z,76.78
2023-01-30T13:12:27.665Z,76.92
2023-01-30T13:13:31.701Z,76.92
2023-01-30T13:15:19.871Z,78.36
2023-01-30T13:17:57.172Z,78.79
2023-01-30T13:18:31.713Z,78.79
2023-01-30T13:20:26.769Z,78.96
2023-01-30T13:23:04.036Z,78.57
2023-01-30T13:23:31.744Z,78.57
2023-01-30T13:26:04.595Z,78.41
2023-01-30T13:28:39.540Z,77.41
2023-01-30T13:28:39.706Z,77.41
2023-01-30T13:31:11.146Z,76.91
2023-01-30T13:33:31.682Z,76.91
2023-01-30T13:33:41.443Z,77.00
2023-01-30T13:36:21.716Z,77.12
2023-01-30T13:38:31.707Z,77.12
2023-01-30T13:39:02.735Z,75.39
2023-01-30T13:41:34.321Z,75.32
2023-01-30T13:43:31.716Z,75.32
2023-01-30T13:44:06.622Z,75.51
2023-01-30T13:46:37.620Z,75.72
2023-01-30T13:48:31.697Z,75.72
2023-01-30T13:49:21.681Z,76.61
2023-01-30T13:51:51.193Z,76.56
2023-01-30T13:53:31.725Z,76.56
2023-01-30T13:54:50.004Z,76.54
2023-01-30T13:57:25.064Z,76.88
2023-01-30T13:58:31.725Z,76.88
2023-01-30T14:00:20.563Z,78.07
2023-01-30T14:03:05.755Z,77.86
2023-01-30T14:03:31.833Z,77.86
2023-01-30T14:05:51.090Z,77.85
2023-01-30T14:08:19.932Z,76.87
2023-01-30T14:08:31.784Z,76.87
2023-01-30T14:10:47.794Z,76.09
2023-01-30T14:13:16.684Z,75.59
2023-01-30T14:13:32.360Z,75.59
2023-01-30T14:16:04.711Z,76.50
2023-01-30T14:18:36.073Z,76.06
2023-01-30T14:18:36.270Z,76.06
2023-01-30T14:21:14.809Z,75.59
2023-01-30T14:23:31.715Z,75.59
2023-01-30T14:23:53.679Z,74.84
2023-01-30T14:26:48.976Z,75.01
2023-01-30T14:28:31.712Z,75.01
2023-01-30T14:29:37.253Z,74.58
2023-01-30T14:32:23.802Z,75.92
2023-01-30T14:33:31.734Z,75.92
2023-01-30T14:35:14.123Z,75.37
2023-01-30T14:37:43.192Z,74.87
2023-01-30T14:38:31.728Z,74.87
2023-01-30T14:40:31.085Z,74.97
2023-01-30T14:43:12.401Z,75.31
2023-01-30T14:43:31.731Z,75.31
2023-01-30T14:45:44.719Z,75.66
2023-01-30T14:48:49.932Z,75.44
2023-01-30T14:48:50.128Z,75.44
2023-01-30T14:51:21.531Z,76.00
2023-01-30T14:53:31.730Z,76.00
2023-01-30T14:54:12.526Z,75.86
2023-01-30T14:56:58.959Z,75.14
2023-01-30T14:58:31.800Z,75.14
2023-01-30T14:59:34.344Z,74.83
2023-01-30T15:02:13.080Z,75.78
2023-01-30T15:03:31.734Z,75.78
2023-01-30T15:04:52.897Z,75.72
2023-01-30T15:07:27.418Z,75.61
2023-01-30T15:08:31.722Z,75.61
2023-01-30T15:10:05.686Z,75.94
2023-01-30T15:12:47.079Z,76.51
2023-01-30T15:13:31.765Z,76.51
2023-01-30T15:15:25.252Z,77.31
2023-01-30T15:18:08.190Z,75.94
2023-01-30T15:18:31.732Z,75.94
2023-01-30T15:21:22.687Z,77.66
2023-01-30T15:23:31.737Z,77.66
2023-01-30T15:24:14.015Z,79.97
2023-01-30T15:26:46.568Z,81.29
2023-01-30T15:28:31.838Z,81.29
2023-01-30T15:29:24.883Z,82.21
2023-01-30T15:31:56.401Z,82.92
2023-01-30T15:33:32.640Z,82.92
2023-01-30T15:34:23.371Z,81.94
2023-01-30T15:36:49.807Z,81.69
2023-01-30T15:38:31.785Z,81.69
2023-01-30T15:39:25.981Z,80.68
2023-01-30T15:41:57.185Z,80.03
2023-01-30T15:43:31.752Z,80.03
2023-01-30T15:44:53.466Z,81.45
2023-01-30T15:47:35.049Z,82.08
2023-01-30T15:48:31.745Z,82.08
2023-01-30T15:50:08.427Z,82.89
2023-01-30T15:52:44.295Z,83.61
2023-01-30T15:53:31.728Z,83.61
2023-01-30T15:55:35.971Z,85.31
2023-01-30T15:58:10.860Z,86.35
2023-01-30T15:58:31.824Z,86.35
2023-01-30T16:00:53.573Z,87.35
2023-01-30T16:03:26.957Z,88.71
2023-01-30T16:03:31.777Z,88.71
2023-01-30T16:05:55.693Z,89.24
2023-01-30T16:08:31.273Z,89.96
2023-01-30T16:08:31.745Z,89.96
2023-01-30T16:10:58.147Z,90.60
2023-01-30T16:13:24.878Z,90.42
2023-01-30T16:13:31.733Z,90.42
2023-01-30T16:16:19.203Z,91.64
2023-01-30T16:18:31.750Z,91.64
2023-01-30T16:19:01.009Z,91.03
2023-01-30T16:21:40.129Z,92.18
2023-01-30T16:23:31.745Z,92.18
2023-01-30T16:24:13.813Z,92.60
2023-01-30T16:26:44.360Z,93.79
2023-01-30T16:28:31.748Z,93.79
2023-01-30T16:29:23.061Z,94.58
2023-01-30T16:31:52.451Z,94.51
2023-01-30T16:33:31.767Z,94.51
2023-01-30T16:34:37.917Z,94.51
2023-01-30T16:37:22.240Z,94.32
2023-01-30T16:38:31.755Z,94.32
2023-01-30T16:40:16.594Z,93.66
2023-01-30T16:42:56.930Z,93.31
2023-01-30T16:43:32.807Z,93.31
2023-01-30T16:45:35.755Z,92.69
2023-01-30T16:48:22.762Z,93.37
2023-01-30T16:48:31.756Z,93.37
2023-01-30T16:50:59.205Z,92.30
2023-01-30T16:53:28.925Z,92.65
2023-01-30T16:53:32.810Z,92.65
2023-01-30T16:56:01.114Z,93.63
2023-01-30T16:58:33.657Z,93.43
2023-01-30T16:58:33.851Z,93.43
2023-01-30T17:01:07.108Z,92.37
2023-01-30T17:03:31.830Z,23
2023-01-30T17:03:40.293Z,92.05
2023-01-30T17:06:20.055Z,92.33
2023-01-30T17:08:31.815Z,92.33
2023-01-30T17:08:56.233Z,92.12
2023-01-30T17:11:40.540Z,92.79
2023-01-30T17:13:31.906Z,92.79
2023-01-30T17:14:30.540Z,93.27
2023-01-30T17:17:08.140Z,92.65
2023-01-30T17:18:31.924Z,92.65
2023-01-30T17:19:35.671Z,92.00
2023-01-30T17:22:09.191Z,92.22
2023-01-30T17:23:33.623Z,92.22
2023-01-30T17:24:36.353Z,92.58
2023-01-30T17:27:04.564Z,92.73
2023-01-30T17:28:31.770Z,92.73
2023-01-30T17:29:47.341Z,92.72
2023-01-30T17:32:15.270Z,92.66
2023-01-30T17:33:31.819Z,23
2023-01-30T17:34:42.424Z,93.37
2023-01-30T17:37:15.859Z,94.12
2023-01-30T17:38:31.774Z,94.12
2023-01-30T17:39:45.900Z,94.18
2023-01-30T17:42:14.694Z,95.86
2023-01-30T17:43:31.785Z,95.86
2023-01-30T17:44:41.802Z,95.26
2023-01-30T17:47:12.635Z,95.59
2023-01-30T17:48:31.806Z,95.59
2023-01-30T17:49:44.901Z,95.98
2023-01-30T17:52:16.740Z,94.92
2023-01-30T17:53:31.776Z,94.92
2023-01-30T17:54:43.321Z,95.88
2023-01-30T17:57:15.144Z,95.99
2023-01-30T17:58:31.782Z,95.99
2023-01-30T17:59:41.866Z,94.73
2023-01-30T18:02:11.748Z,95.73
2023-01-30T18:03:32.793Z,95.73
2023-01-30T18:04:39.995Z,95.77
2023-01-30T18:07:11.854Z,95.92
2023-01-30T18:08:31.833Z,95.92
2023-01-30T18:09:38.340Z,97.03
2023-01-30T18:12:05.241Z,97.27
2023-01-30T18:13:31.797Z,97.27
2023-01-30T18:14:31.927Z,97.76
2023-01-30T18:17:00.751Z,99.13
2023-01-30T18:18:40.343Z,99.13
2023-01-30T18:19:29.075Z,100.00
2023-01-30T18:21:58.170Z,99.71
2023-01-30T18:23:32.908Z,99.71
2023-01-30T18:24:24.566Z,100.00
2023-01-30T18:26:51.103Z,100.00
2023-01-30T18:28:31.973Z,100.00
2023-01-30T18:29:17.614Z,100.00
2023-01-30T18:31:44.131Z,100.00
2023-01-30T18:33:31.776Z,100.00
2023-01-30T18:34:11.021Z,100.00
2023-01-30T18:36:38.173Z,100.00
2023-01-30T18:38:31.793Z,100.00
2023-01-30T18:39:05.830Z,100.00
2023-01-30T18:41:32.637Z,100.00
2023-01-30T18:43:31.779Z,100.00
2023-01-30T18:44:01.799Z,100.00
2023-01-30T18:46:29.353Z,100.00
2023-01-30T18:48:31.844Z,100.00
2023-01-30T18:48:56.787Z,100.00
2023-01-30T18:51:33.528Z,100.00
2023-01-30T18:53:31.802Z,100.00
2023-01-30T18:54:00.947Z,100.00
2023-01-30T18:56:31.163Z,100.00
2023-01-30T18:58:31.816Z,100.00
2023-01-30T18:58:59.443Z,100.00
2023-01-30T19:01:27.899Z,100.00
2023-01-30T19:03:31.813Z,100.00
2023-01-30T19:03:59.301Z,100.00
2023-01-30T19:06:26.572Z,100.00
2023-01-30T19:08:31.801Z,100.00
2023-01-30T19:08:53.158Z,100.00
2023-01-30T19:11:40.365Z,100.00
2023-01-30T19:13:31.862Z,100.00
2023-01-30T19:14:07.718Z,100.00
2023-01-30T19:16:36.213Z,100.00
2023-01-30T19:18:31.850Z,100.00
2023-01-30T19:19:03.387Z,100.00
2023-01-30T19:21:30.677Z,100.00
2023-01-30T19:23:31.847Z,100.00
2023-01-30T19:23:57.602Z,100.00
2023-01-30T19:26:24.869Z,100.00
2023-01-30T19:28:31.788Z,100.00
2023-01-30T19:28:52.101Z,100.00
2023-01-30T19:31:21.082Z,100.00
2023-01-30T19:33:31.815Z,100.00
2023-01-30T19:33:56.953Z,100.00
2023-01-30T19:36:24.930Z,100.00
2023-01-30T19:38:31.801Z,100.00
2023-01-30T19:38:51.906Z,100.00
2023-01-30T19:41:33.820Z,100.00
2023-01-30T19:43:31.799Z,100.00
2023-01-30T19:44:01.943Z,100.00
2023-01-30T19:46:29.242Z,100.00
2023-01-30T19:48:31.803Z,100.00
2023-01-30T19:48:56.169Z,100.00
2023-01-30T19:51:27.710Z,100.00
2023-01-30T19:53:31.802Z,100.00
2023-01-30T19:53:56.614Z,100.00
2023-01-30T19:56:25.289Z,100.00
2023-01-30T19:58:31.911Z,100.00
2023-01-30T19:58:54.684Z,100.00
2023-01-30T20:01:22.643Z,100.00
2023-01-30T20:03:31.827Z,100.00
2023-01-30T20:03:49.434Z,100.00
2023-01-30T20:06:18.152Z,100.00
2023-01-30T20:08:32.789Z,100.00
2023-01-30T20:08:47.628Z,100.00
2023-01-30T20:11:15.355Z,100.00
2023-01-30T20:13:31.837Z,100.00
2023-01-30T20:13:43.169Z,100.00
2023-01-30T20:16:12.316Z,100.00
2023-01-30T20:18:31.823Z,100.00
2023-01-30T20:18:40.083Z,100.00
2023-01-30T20:21:12.073Z,100.00
2023-01-30T20:23:31.792Z,100.00
2023-01-30T20:23:38.783Z,100.00
2023-01-30T20:26:07.361Z,100.00
2023-01-30T20:28:31.829Z,100.00
2023-01-30T20:28:36.696Z,100.00
2023-01-30T20:31:20.142Z,100.00
2023-01-30T20:33:31.816Z,100.00
2023-01-30T20:33:47.430Z,100.00
2023-01-30T20:36:18.602Z,100.00
2023-01-30T20:38:31.872Z,100.00
2023-01-30T20:38:46.672Z,100.00
2023-01-30T20:41:21.052Z,100.00
2023-01-30T20:43:31.824Z,100.00
2023-01-30T20:43:50.947Z,100.00
2023-01-30T20:46:24.064Z,100.00
2023-01-30T20:48:31.825Z,100.00
2023-01-30T20:48:54.217Z,100.00
2023-01-30T20:51:24.416Z,100.00
2023-01-30T20:53:31.814Z,100.00
2023-01-30T20:53:53.885Z,100.00
2023-01-30T20:56:22.562Z,100.00
2023-01-30T20:58:31.850Z,100.00
2023-01-30T20:58:49.493Z,100.00
2023-01-30T21:01:18.959Z,100.00
2023-01-30T21:03:31.809Z,100.00
2023-01-30T21:03:56.333Z,100.00
2023-01-30T21:06:42.574Z,100.00
2023-01-30T21:08:31.806Z,100.00
2023-01-30T21:09:23.380Z,100.00
2023-01-30T21:11:51.117Z,100.00
2023-01-30T21:13:31.903Z,100.00
2023-01-30T21:14:17.747Z,100.00
2023-01-30T21:16:45.060Z,100.00
2023-01-30T21:18:31.813Z,100.00
2023-01-30T21:19:15.427Z,100.00
2023-01-30T21:21:47.019Z,100.00